Time;durP1;ratioP1;P1;durP2;ratioP2;P2;SDS_P1;SDS_P2;PMS_P1;PMS_P2;Temp;Humidity;BMP_temperature;BMP_pressure;BME280_temperature;BME280_humidity;BME280_pressure;Samples;Min_cycle;Max_cycle;Signal;HPM_P1;HPM_P2
2021/01/14 00:00:07;;;;;;;;;;;26.10;93.60;;;;;;5094940;28;19908;-86
2021/01/14 00:02:34;;;;;;;;;;;26.20;93.40;;;;;;5097029;28;20019;-83
2021/01/14 00:05:01;;;;;;;;;;;26.40;93.20;;;;;;5096181;28;19919;-87
2021/01/14 00:07:28;;;;;;;;;;;26.50;93.10;;;;;;5093390;28;19912;-85
2021/01/14 00:09:57;;;;;;;;;;;26.60;93.10;;;;;;5093679;28;19927;-84
2021/01/14 00:12:24;;;;;;;;;;;26.80;93.00;;;;;;5092452;28;20010;-84
2021/01/14 00:14:51;;;;;;;;;;;26.90;92.40;;;;;;5094989;28;19919;-86
2021/01/14 00:17:18;;;;;;;;;;;27.00;92.90;;;;;;5092214;28;19913;-88
2021/01/14 00:19:44;;;;;;;;;;;27.10;92.10;;;;;;5093073;28;19912;-84
2021/01/14 00:22:11;;;;;;;;;;;27.20;92.20;;;;;;5094205;28;20034;-87
2021/01/14 00:24:37;;;;;;;;;;;27.40;92.10;;;;;;5094664;28;19908;-86
2021/01/14 00:27:04;;;;;;;;;;;27.60;91.50;;;;;;5094154;28;20009;-84
2021/01/14 00:29:32;;;;;;;;;;;27.70;90.80;;;;;;5092630;28;19920;-88
2021/01/14 00:31:58;;;;;;;;;;;27.70;91.30;;;;;;5094451;28;19916;-85
2021/01/14 00:34:25;;;;;;;;;;;27.90;89.70;;;;;;5092692;28;19957;-86
2021/01/14 00:39:36;;;;;;;;;;;28.20;90.90;;;;;;5094025;28;19957;-86
2021/01/14 00:42:03;;;;;;;;;;;28.20;90.60;;;;;;5093046;28;20010;-88
2021/01/14 00:44:30;;;;;;;;;;;28.50;90.90;;;;;;5081689;28;19913;-83
2021/01/14 00:46:57;;;;;;;;;;;28.70;89.40;;;;;;5091976;28;19991;-82
2021/01/14 00:49:24;;;;;;;;;;;29.00;89.00;;;;;;5094400;28;19924;-82
2021/01/14 00:51:51;;;;;;;;;;;29.30;87.60;;;;;;5095471;28;19947;-85
2021/01/14 00:54:18;;;;;;;;;;;29.40;87.20;;;;;;5093584;28;19949;-86
2021/01/14 00:56:45;;;;;;;;;;;29.60;87.20;;;;;;5094694;28;19915;-85
2021/01/14 00:59:11;;;;;;;;;;;30.00;85.40;;;;;;5072859;28;20070;-83
2021/01/14 01:01:41;;;;;;;;;;;30.10;84.50;;;;;;5090553;28;19923;-83
2021/01/14 01:04:10;;;;;;;;;;;30.10;85.20;;;;;;5093116;28;19919;-88
2021/01/14 01:06:41;;;;;;;;;;;30.30;84.30;;;;;;5091786;28;19977;-85
2021/01/14 01:09:09;;;;;;;;;;;30.50;83.30;;;;;;5087529;28;20011;-83
2021/01/14 01:11:36;;;;;;;;;;;31.40;81.00;;;;;;5092261;28;19919;-84
2021/01/14 01:14:03;;;;;;;;;;;31.50;79.70;;;;;;5081127;28;19940;-85
2021/01/14 01:16:30;;;;;;;;;;;31.30;80.40;;;;;;5093820;28;20272;-83
2021/01/14 01:18:57;;;;;;;;;;;31.40;80.30;;;;;;5100504;28;20335;-85
2021/01/14 01:21:24;;;;;;;;;;;31.50;78.90;;;;;;5100095;27;20475;-80
2021/01/14 01:23:51;;;;;;;;;;;31.40;79.10;;;;;;5094900;28;19953;-81
2021/01/14 01:26:18;;;;;;;;;;;31.60;79.20;;;;;;5114475;28;19908;-84
2021/01/14 01:28:46;;;;;;;;;;;31.40;78.40;;;;;;5114554;28;19999;-84
2021/01/14 01:31:13;;;;;;;;;;;31.40;78.90;;;;;;5115076;28;19998;-82
2021/01/14 01:33:41;;;;;;;;;;;31.30;78.30;;;;;;5084543;28;19987;-82
2021/01/14 01:36:11;;;;;;;;;;;31.40;78.90;;;;;;5090960;28;19908;-81
2021/01/14 01:38:38;;;;;;;;;;;31.60;77.60;;;;;;5110413;28;19961;-83
2021/01/14 01:41:05;;;;;;;;;;;31.40;78.00;;;;;;5105474;28;19908;-83
2021/01/14 01:43:34;;;;;;;;;;;31.40;78.10;;;;;;5093301;28;19912;-83
2021/01/14 01:46:02;;;;;;;;;;;31.70;77.60;;;;;;5111789;28;19908;-81
2021/01/14 01:48:30;;;;;;;;;;;31.70;76.60;;;;;;5100679;28;19920;-85
2021/01/14 01:50:57;;;;;;;;;;;31.60;77.10;;;;;;5093544;28;19924;-86
2021/01/14 01:53:24;;;;;;;;;;;31.60;77.90;;;;;;5093403;28;20043;-84
2021/01/14 01:55:51;;;;;;;;;;;31.90;77.20;;;;;;5086688;28;20303;-87
2021/01/14 01:58:22;;;;;;;;;;;31.70;77.20;;;;;;5094502;28;19934;-83
2021/01/14 02:00:51;;;;;;;;;;;31.50;77.50;;;;;;5112101;28;19915;-87
2021/01/14 02:03:18;;;;;;;;;;;31.30;77.60;;;;;;5097497;28;19912;-88
2021/01/14 02:05:44;;;;;;;;;;;30.50;79.70;;;;;;5090921;28;19912;-86
2021/01/14 02:08:23;;;;;;;;;;;30.10;81.40;;;;;;5090642;28;19960;-87
2021/01/14 02:10:58;;;;;;;;;;;29.90;83.00;;;;;;5086550;28;19912;-86
2021/01/14 02:13:40;;;;;;;;;;;29.90;82.70;;;;;;5092876;28;19924;-87
2021/01/14 02:16:07;;;;;;;;;;;29.90;82.60;;;;;;5092456;28;19916;-86
2021/01/14 02:18:34;;;;;;;;;;;29.80;82.50;;;;;;5091082;28;19939;-89
2021/01/14 02:21:02;;;;;;;;;;;29.70;83.10;;;;;;5087002;28;20031;-89
2021/01/14 02:23:47;;;;;;;;;;;29.70;82.80;;;;;;5093494;28;19908;-87
2021/01/14 02:26:15;;;;;;;;;;;29.70;83.80;;;;;;5092974;28;19963;-87
2021/01/14 02:28:43;;;;;;;;;;;29.60;83.10;;;;;;5092500;28;19920;-90
2021/01/14 02:31:10;;;;;;;;;;;29.70;83.60;;;;;;5094732;28;19913;-84
2021/01/14 02:33:37;;;;;;;;;;;29.60;83.60;;;;;;5097201;28;19986;-89
2021/01/14 02:36:04;;;;;;;;;;;29.50;84.20;;;;;;5093962;28;19914;-87
2021/01/14 02:38:31;;;;;;;;;;;29.40;85.00;;;;;;5093225;28;20385;-89
2021/01/14 02:40:58;;;;;;;;;;;29.60;84.00;;;;;;5092480;28;19912;-89
2021/01/14 02:43:25;;;;;;;;;;;29.60;84.40;;;;;;5091691;28;19916;-90
2021/01/14 02:45:52;;;;;;;;;;;29.50;84.50;;;;;;5099869;28;19942;-87
2021/01/14 02:48:27;;;;;;;;;;;29.50;84.20;;;;;;5095111;28;19943;-88
2021/01/14 02:50:56;;;;;;;;;;;29.50;84.30;;;;;;5093143;28;19953;-88
2021/01/14 02:53:23;;;;;;;;;;;29.50;84.30;;;;;;5094128;28;19958;-88
2021/01/14 02:55:51;;;;;;;;;;;29.50;84.90;;;;;;5093766;28;20019;-86
2021/01/14 02:58:17;;;;;;;;;;;29.50;84.30;;;;;;5093522;28;19997;-86
2021/01/14 03:00:44;;;;;;;;;;;29.60;84.40;;;;;;5093704;28;20002;-88
2021/01/14 03:03:11;;;;;;;;;;;29.60;83.70;;;;;;5094007;28;20379;-86
2021/01/14 03:05:38;;;;;;;;;;;29.70;83.30;;;;;;5092922;28;19920;-83
2021/01/14 03:08:04;;;;;;;;;;;29.70;84.00;;;;;;5085925;28;19912;-82
2021/01/14 03:10:31;;;;;;;;;;;29.80;83.20;;;;;;5091355;28;20023;-88
2021/01/14 03:12:58;;;;;;;;;;;29.70;83.10;;;;;;5095105;28;19948;-86
2021/01/14 03:15:25;;;;;;;;;;;29.70;83.50;;;;;;5092319;28;20672;-86
2021/01/14 03:17:53;;;;;;;;;;;29.70;82.80;;;;;;5092763;28;19958;-87
2021/01/14 03:20:20;;;;;;;;;;;29.60;82.10;;;;;;5091941;28;19916;-87
2021/01/14 03:22:47;;;;;;;;;;;29.50;82.80;;;;;;5091553;28;19958;-86
2021/01/14 03:25:15;;;;;;;;;;;29.40;82.80;;;;;;5092324;28;19955;-86
2021/01/14 03:27:42;;;;;;;;;;;29.50;82.70;;;;;;5091370;28;20014;-85
2021/01/14 03:30:10;;;;;;;;;;;29.50;83.10;;;;;;5091775;28;19942;-85
2021/01/14 03:32:37;;;;;;;;;;;29.40;83.10;;;;;;5091765;28;19908;-89
2021/01/14 03:35:05;;;;;;;;;;;29.30;83.40;;;;;;5090990;28;20450;-87
2021/01/14 03:37:32;;;;;;;;;;;29.40;84.00;;;;;;5089933;28;19927;-89
2021/01/14 03:39:59;;;;;;;;;;;29.60;82.00;;;;;;5089189;28;19933;-89
2021/01/14 03:42:25;;;;;;;;;;;29.60;83.60;;;;;;5090723;28;19927;-85
2021/01/14 03:44:52;;;;;;;;;;;29.60;82.90;;;;;;5092432;28;19908;-84
2021/01/14 03:47:23;;;;;;;;;;;29.70;82.20;;;;;;5091419;28;20026;-87
2021/01/14 03:49:49;;;;;;;;;;;29.70;82.90;;;;;;5090979;28;19977;-87
2021/01/14 03:52:16;;;;;;;;;;;29.60;82.70;;;;;;5090331;28;19947;-83
2021/01/14 03:54:45;;;;;;;;;;;29.50;82.60;;;;;;5091557;28;19908;-88
2021/01/14 03:57:11;;;;;;;;;;;29.50;82.90;;;;;;5091623;28;19989;-85
2021/01/14 03:59:38;;;;;;;;;;;29.50;83.50;;;;;;5095382;28;19912;-85
2021/01/14 04:02:08;;;;;;;;;;;29.40;82.90;;;;;;5081131;28;19912;-88
2021/01/14 04:04:36;;;;;;;;;;;29.50;83.00;;;;;;5095065;27;19912;-78
2021/01/14 04:07:03;;;;;;;;;;;29.30;83.10;;;;;;5090199;28;20355;-85
2021/01/14 04:09:29;;;;;;;;;;;29.10;84.10;;;;;;5083130;28;19966;-85
2021/01/14 04:11:56;;;;;;;;;;;29.20;84.10;;;;;;5078279;28;19909;-85
2021/01/14 04:14:22;;;;;;;;;;;29.20;83.40;;;;;;5095258;28;19961;-85
2021/01/14 04:16:50;;;;;;;;;;;29.20;83.00;;;;;;5094780;28;19912;-84
2021/01/14 04:19:17;;;;;;;;;;;29.10;84.00;;;;;;5094472;28;20329;-87
2021/01/14 04:21:44;;;;;;;;;;;29.10;84.60;;;;;;5094735;28;19916;-85
2021/01/14 04:24:11;;;;;;;;;;;29.00;85.00;;;;;;5097445;28;20267;-87
2021/01/14 04:26:38;;;;;;;;;;;29.00;85.40;;;;;;5093527;28;19958;-85
2021/01/14 04:29:05;;;;;;;;;;;29.00;84.90;;;;;;5093316;28;19927;-83
2021/01/14 04:31:33;;;;;;;;;;;28.90;85.60;;;;;;5093516;28;19912;-83
2021/01/14 04:34:00;;;;;;;;;;;28.90;85.20;;;;;;5094047;28;19919;-82
2021/01/14 04:36:27;;;;;;;;;;;29.00;85.10;;;;;;5094482;28;19917;-81
2021/01/14 04:38:53;;;;;;;;;;;29.00;84.80;;;;;;5093928;28;19924;-79
2021/01/14 04:41:20;;;;;;;;;;;28.90;84.80;;;;;;5094026;28;19916;-79
2021/01/14 04:43:49;;;;;;;;;;;28.90;85.20;;;;;;5094504;28;19916;-80
2021/01/14 04:46:16;;;;;;;;;;;29.00;84.30;;;;;;5093470;28;19916;-86
2021/01/14 04:48:48;;;;;;;;;;;28.90;83.10;;;;;;5094337;28;20268;-79
2021/01/14 04:51:16;;;;;;;;;;;28.90;83.00;;;;;;5092956;28;20010;-80
2021/01/14 04:53:44;;;;;;;;;;;28.90;82.70;;;;;;5093895;28;19941;-80
2021/01/14 04:56:11;;;;;;;;;;;29.00;83.00;;;;;;5093853;28;19921;-79
2021/01/14 04:58:39;;;;;;;;;;;28.80;83.30;;;;;;5094234;28;19912;-79
2021/01/14 05:01:10;;;;;;;;;;;28.70;83.10;;;;;;5092394;28;20006;-80
2021/01/14 05:03:40;;;;;;;;;;;28.80;83.10;;;;;;5094234;28;20278;-79
2021/01/14 05:06:07;;;;;;;;;;;28.80;82.80;;;;;;5072068;28;19908;-80
2021/01/14 05:08:34;;;;;;;;;;;28.70;82.50;;;;;;5075269;28;19924;-83
2021/01/14 05:11:01;;;;;;;;;;;28.70;83.00;;;;;;5082683;28;20275;-83
2021/01/14 05:13:31;;;;;;;;;;;28.80;82.70;;;;;;5092986;28;20278;-80
2021/01/14 05:15:57;;;;;;;;;;;28.80;82.70;;;;;;5087893;28;19912;-80
2021/01/14 05:18:24;;;;;;;;;;;28.80;82.80;;;;;;5081081;28;19912;-79
2021/01/14 05:20:51;;;;;;;;;;;28.70;82.70;;;;;;5093606;28;19915;-78
2021/01/14 05:23:20;;;;;;;;;;;28.70;82.40;;;;;;5081173;28;19912;-79
2021/01/14 05:25:53;;;;;;;;;;;28.70;82.80;;;;;;5082353;28;19947;-80
2021/01/14 05:28:22;;;;;;;;;;;28.80;82.50;;;;;;5082395;28;19920;-80
2021/01/14 05:30:49;;;;;;;;;;;28.80;83.00;;;;;;5091738;28;20268;-82
2021/01/14 05:33:17;;;;;;;;;;;28.80;83.00;;;;;;5094250;28;19931;-80
2021/01/14 05:35:47;;;;;;;;;;;28.70;82.40;;;;;;5093854;28;19912;-78
2021/01/14 05:38:24;;;;;;;;;;;28.60;83.10;;;;;;5092153;28;20394;-85
2021/01/14 05:43:55;;;;;;;;;;;28.60;82.60;;;;;;5078767;28;20038;-85
2021/01/14 05:46:31;;;;;;;;;;;28.60;83.00;;;;;;5079286;28;19908;-86
2021/01/14 05:48:59;;;;;;;;;;;28.60;82.90;;;;;;5093476;28;20283;-84
2021/01/14 05:51:26;;;;;;;;;;;28.50;83.30;;;;;;5090832;28;19912;-84
2021/01/14 05:53:54;;;;;;;;;;;28.40;84.00;;;;;;5097641;28;19957;-81
2021/01/14 05:56:25;;;;;;;;;;;28.50;83.60;;;;;;5104362;28;19908;-87
2021/01/14 05:58:53;;;;;;;;;;;28.50;84.20;;;;;;5088264;28;19934;-83
2021/01/14 06:01:19;;;;;;;;;;;28.50;84.60;;;;;;5090674;28;19916;-83
2021/01/14 06:03:46;;;;;;;;;;;28.60;84.70;;;;;;5087698;28;20011;-81
2021/01/14 06:06:16;;;;;;;;;;;28.50;83.60;;;;;;5091250;28;19928;-83
2021/01/14 06:08:43;;;;;;;;;;;28.50;84.00;;;;;;5091416;28;19916;-85
2021/01/14 06:11:23;;;;;;;;;;;28.50;82.60;;;;;;5092863;28;20030;-83
2021/01/14 06:13:50;;;;;;;;;;;28.50;82.80;;;;;;5104391;28;19912;-85
2021/01/14 06:16:17;;;;;;;;;;;28.60;83.30;;;;;;5090214;27;20370;-81
2021/01/14 06:19:09;;;;;;;;;;;28.60;82.10;;;;;;5083141;28;20358;-80
2021/01/14 06:21:49;;;;;;;;;;;28.50;83.00;;;;;;5086218;28;19912;-80
2021/01/14 06:24:19;;;;;;;;;;;28.50;83.70;;;;;;5089646;28;19908;-79
2021/01/14 06:26:49;;;;;;;;;;;28.40;84.00;;;;;;5080303;28;20436;-81
2021/01/14 06:29:17;;;;;;;;;;;28.40;84.10;;;;;;5071496;28;19920;-82
2021/01/14 06:31:43;;;;;;;;;;;28.30;84.70;;;;;;5086812;28;19916;-79
2021/01/14 06:34:11;;;;;;;;;;;28.10;85.60;;;;;;5089400;28;19945;-80
2021/01/14 06:36:40;;;;;;;;;;;28.10;86.20;;;;;;5084840;28;19955;-84
2021/01/14 06:39:12;;;;;;;;;;;28.30;85.00;;;;;;5082721;28;19951;-81
2021/01/14 06:41:40;;;;;;;;;;;28.50;85.20;;;;;;5082306;28;19920;-80
2021/01/14 06:44:08;;;;;;;;;;;28.50;84.50;;;;;;5079573;28;20376;-84
2021/01/14 06:46:38;;;;;;;;;;;28.50;83.70;;;;;;5089632;28;20019;-78
2021/01/14 06:49:08;;;;;;;;;;;28.50;83.50;;;;;;5090243;28;19931;-81
2021/01/14 06:51:53;;;;;;;;;;;28.50;82.60;;;;;;5090710;28;19936;-78
2021/01/14 06:54:26;;;;;;;;;;;28.40;81.40;;;;;;5069365;28;19999;-80
2021/01/14 06:57:05;;;;;;;;;;;28.50;80.80;;;;;;5080629;28;19915;-80
2021/01/14 06:59:37;;;;;;;;;;;28.50;78.30;;;;;;5090659;28;19972;-80
2021/01/14 07:02:06;;;;;;;;;;;28.70;79.10;;;;;;5090162;28;19916;-80
2021/01/14 07:04:37;;;;;;;;;;;28.60;78.70;;;;;;5090773;28;19931;-80
2021/01/14 07:07:21;;;;;;;;;;;28.60;76.80;;;;;;5092395;28;19995;-79
2021/01/14 07:10:01;;;;;;;;;;;28.60;76.20;;;;;;5090903;28;20634;-80
2021/01/14 07:12:28;;;;;;;;;;;28.70;74.50;;;;;;5091168;28;19912;-79
2021/01/14 07:15:04;;;;;;;;;;;28.70;72.10;;;;;;5091937;28;19908;-82
2021/01/14 07:17:36;;;;;;;;;;;28.70;71.20;;;;;;5091659;28;19915;-79
2021/01/14 07:20:06;;;;;;;;;;;28.70;71.70;;;;;;5090888;28;19966;-84
2021/01/14 07:22:41;;;;;;;;;;;28.60;71.10;;;;;;5088899;28;19916;-82
2021/01/14 07:25:12;;;;;;;;;;;28.60;71.40;;;;;;5090825;28;19916;-80
2021/01/14 07:27:43;;;;;;;;;;;28.60;71.10;;;;;;5091702;28;20066;-86
2021/01/14 07:30:19;;;;;;;;;;;28.60;71.00;;;;;;5095228;28;19923;-80
2021/01/14 07:32:53;;;;;;;;;;;29.00;70.20;;;;;;5094177;28;19908;-84
2021/01/14 07:35:42;;;;;;;;;;;29.20;72.70;;;;;;5094114;28;19961;-80
2021/01/14 07:38:19;;;;;;;;;;;29.30;75.50;;;;;;5094164;28;19979;-80
2021/01/14 07:40:46;;;;;;;;;;;29.20;76.90;;;;;;5092341;28;20379;-79
2021/01/14 07:43:13;;;;;;;;;;;29.10;78.40;;;;;;5093877;28;20299;-86
2021/01/14 07:45:44;;;;;;;;;;;28.90;79.40;;;;;;5094088;28;19912;-79
2021/01/14 07:48:21;;;;;;;;;;;28.70;80.20;;;;;;5093782;28;19967;-81
2021/01/14 07:50:49;;;;;;;;;;;28.70;81.10;;;;;;5093718;28;20463;-79
2021/01/14 07:53:17;;;;;;;;;;;28.50;84.20;;;;;;5093618;28;19908;-85
2021/01/14 07:55:46;;;;;;;;;;;28.10;87.10;;;;;;5093517;28;19912;-80
2021/01/14 07:58:22;;;;;;;;;;;27.70;89.50;;;;;;5093558;28;19935;-80
2021/01/14 08:01:09;;;;;;;;;;;27.30;90.80;;;;;;5093700;28;20309;-80
2021/01/14 08:03:39;;;;;;;;;;;26.90;91.90;;;;;;5093184;28;19919;-85
2021/01/14 08:06:26;;;;;;;;;;;26.30;93.00;;;;;;5094713;28;19944;-79
2021/01/14 08:09:00;;;;;;;;;;;25.90;94.30;;;;;;5093448;28;19924;-81
2021/01/14 08:11:30;;;;;;;;;;;25.80;94.50;;;;;;5088383;28;19916;-79
2021/01/14 08:14:07;;;;;;;;;;;25.80;94.50;;;;;;5095163;28;19908;-79
2021/01/14 08:16:34;;;;;;;;;;;25.80;94.60;;;;;;5095086;28;19981;-80
2021/01/14 08:19:24;;;;;;;;;;;25.60;95.30;;;;;;5095346;28;19908;-85
2021/01/14 08:22:13;;;;;;;;;;;25.50;95.90;;;;;;5095800;28;20234;-81
2021/01/14 08:24:59;;;;;;;;;;;25.30;96.40;;;;;;5101979;28;19912;-79
2021/01/14 08:27:28;;;;;;;;;;;25.30;96.50;;;;;;5094609;28;19931;-83
2021/01/14 08:30:03;;;;;;;;;;;24.90;97.30;;;;;;5094817;28;19917;-85
2021/01/14 08:32:30;;;;;;;;;;;24.60;97.80;;;;;;5113200;28;19922;-83
2021/01/14 08:34:58;;;;;;;;;;;24.60;98.00;;;;;;5092958;28;19916;-83
2021/01/14 08:37:29;;;;;;;;;;;24.60;98.00;;;;;;5094538;28;19989;-83
2021/01/14 08:40:00;;;;;;;;;;;24.60;97.90;;;;;;5093330;28;19978;-82
2021/01/14 08:42:31;;;;;;;;;;;24.60;97.60;;;;;;5094962;28;19919;-83
2021/01/14 08:45:26;;;;;;;;;;;24.50;98.10;;;;;;5095223;28;19909;-85
2021/01/14 08:47:53;;;;;;;;;;;24.40;98.30;;;;;;5075793;28;19924;-80
2021/01/14 08:50:42;;;;;;;;;;;24.50;98.40;;;;;;5095142;28;19922;-83
2021/01/14 08:53:11;;;;;;;;;;;24.40;98.40;;;;;;5107687;28;19919;-80
2021/01/14 08:55:39;;;;;;;;;;;24.30;98.50;;;;;;5114378;28;19908;-85
2021/01/14 08:58:07;;;;;;;;;;;24.30;98.60;;;;;;5097732;28;19912;-86
2021/01/14 09:00:34;;;;;;;;;;;24.20;99.00;;;;;;5090635;28;20010;-86
2021/01/14 09:03:01;;;;;;;;;;;23.80;99.90;;;;;;5086709;28;19912;-86
2021/01/14 09:05:28;;;;;;;;;;;23.60;99.90;;;;;;5082480;28;20270;-85
2021/01/14 09:08:05;;;;;;;;;;;23.50;99.90;;;;;;5088580;28;19913;-87
2021/01/14 09:10:41;;;;;;;;;;;23.20;99.90;;;;;;5092017;28;20324;-83
2021/01/14 09:13:08;;;;;;;;;;;23.10;99.90;;;;;;5104327;28;19900;-87
2021/01/14 09:15:38;;;;;;;;;;;23.00;99.90;;;;;;5090321;28;19912;-87
2021/01/14 09:18:04;;;;;;;;;;;23.00;99.90;;;;;;5082198;28;19913;-85
2021/01/14 09:20:34;;;;;;;;;;;22.90;99.90;;;;;;5104219;28;19912;-83
2021/01/14 09:23:19;;;;;;;;;;;22.90;99.90;;;;;;5107287;28;19908;-88
2021/01/14 09:25:50;;;;;;;;;;;23.00;99.90;;;;;;5095196;28;19908;-86
2021/01/14 09:28:20;;;;;;;;;;;22.90;99.90;;;;;;5097135;28;19927;-86
2021/01/14 09:30:52;;;;;;;;;;;22.90;99.90;;;;;;5082136;28;19916;-84
2021/01/14 09:33:23;;;;;;;;;;;22.90;99.90;;;;;;5090386;28;19919;-86
2021/01/14 09:36:00;;;;;;;;;;;22.80;99.90;;;;;;5083970;28;19908;-85
2021/01/14 09:38:27;;;;;;;;;;;22.80;99.90;;;;;;5081657;28;19912;-85
2021/01/14 09:40:54;;;;;;;;;;;22.80;99.90;;;;;;5082011;28;20362;-83
2021/01/14 09:43:25;;;;;;;;;;;22.80;99.90;;;;;;5077085;28;19912;-86
2021/01/14 09:45:52;;;;;;;;;;;22.70;99.90;;;;;;5090974;28;19919;-87
2021/01/14 09:48:22;;;;;;;;;;;22.70;99.90;;;;;;5079625;28;19969;-84
2021/01/14 09:50:50;;;;;;;;;;;22.70;99.90;;;;;;5079020;28;19912;-87
2021/01/14 09:53:18;;;;;;;;;;;22.70;99.90;;;;;;5082224;28;19920;-86
2021/01/14 09:55:45;;;;;;;;;;;22.60;99.90;;;;;;5087599;28;19959;-85
2021/01/14 09:58:18;;;;;;;;;;;22.60;99.90;;;;;;5078268;28;19912;-87
2021/01/14 10:00:50;;;;;;;;;;;22.60;99.90;;;;;;5083616;28;19979;-87
2021/01/14 10:03:20;;;;;;;;;;;22.60;99.90;;;;;;5093852;28;19908;-87
2021/01/14 10:05:49;;;;;;;;;;;22.60;99.90;;;;;;5093781;28;19942;-83
2021/01/14 10:08:19;;;;;;;;;;;22.70;99.90;;;;;;5093688;28;19942;-88
2021/01/14 10:10:49;;;;;;;;;;;22.70;99.90;;;;;;5093426;28;20259;-86
2021/01/14 10:13:16;;;;;;;;;;;22.60;99.90;;;;;;5106913;28;20263;-86
2021/01/14 10:15:43;;;;;;;;;;;22.60;99.90;;;;;;5113536;28;19949;-83
2021/01/14 10:18:29;;;;;;;;;;;22.50;99.90;;;;;;5092753;28;19908;-84
2021/01/14 10:20:59;;;;;;;;;;;22.40;99.90;;;;;;5092306;28;19916;-85
2021/01/14 10:23:26;;;;;;;;;;;22.40;99.90;;;;;;5088733;28;20323;-88
2021/01/14 10:25:54;;;;;;;;;;;22.40;99.90;;;;;;5088533;28;20000;-80
2021/01/14 10:28:22;;;;;;;;;;;22.30;99.90;;;;;;5084954;28;19924;-88
2021/01/14 10:30:55;;;;;;;;;;;22.30;99.90;;;;;;5094203;28;20136;-84
2021/01/14 10:33:22;;;;;;;;;;;22.30;99.90;;;;;;5095686;28;19969;-90
2021/01/14 10:35:55;;;;;;;;;;;22.30;99.90;;;;;;5094713;28;19912;-88
2021/01/14 10:38:21;;;;;;;;;;;22.30;99.90;;;;;;5095794;28;20003;-90
2021/01/14 10:40:49;;;;;;;;;;;22.30;99.90;;;;;;5084156;28;19912;-91
2021/01/14 10:43:27;;;;;;;;;;;22.30;99.90;;;;;;5090640;28;20358;-82
2021/01/14 10:45:55;;;;;;;;;;;22.30;99.90;;;;;;5074744;28;19913;-85
2021/01/14 10:48:24;;;;;;;;;;;22.30;99.90;;;;;;5074607;28;19961;-83
2021/01/14 10:50:52;;;;;;;;;;;22.30;99.90;;;;;;5074230;28;19981;-84
2021/01/14 10:53:25;;;;;;;;;;;22.20;99.90;;;;;;5073722;28;20002;-91
2021/01/14 10:56:05;;;;;;;;;;;22.20;99.90;;;;;;5076803;28;19915;-86
2021/01/14 10:58:32;;;;;;;;;;;22.20;99.90;;;;;;5075194;28;19915;-86
2021/01/14 11:00:59;;;;;;;;;;;22.10;99.90;;;;;;5073676;28;19908;-86
2021/01/14 11:03:27;;;;;;;;;;;22.10;99.90;;;;;;5075383;28;19951;-86
2021/01/14 11:06:01;;;;;;;;;;;22.10;99.90;;;;;;5093632;28;19918;-82
2021/01/14 11:08:27;;;;;;;;;;;22.10;99.90;;;;;;5098662;28;19938;-84
2021/01/14 11:11:03;;;;;;;;;;;22.10;99.90;;;;;;5097025;28;19923;-89
2021/01/14 11:13:37;;;;;;;;;;;22.20;99.90;;;;;;5097331;28;19931;-91
2021/01/14 11:16:04;;;;;;;;;;;22.20;99.90;;;;;;5098598;28;19923;-84
2021/01/14 11:18:31;;;;;;;;;;;22.10;99.90;;;;;;5098189;28;20256;-84
2021/01/14 11:20:58;;;;;;;;;;;22.00;99.90;;;;;;5098143;28;19915;-86
2021/01/14 11:23:24;;;;;;;;;;;22.00;99.90;;;;;;5096365;28;19912;-87
2021/01/14 11:25:51;;;;;;;;;;;22.10;99.90;;;;;;5097331;28;20017;-89
2021/01/14 11:28:18;;;;;;;;;;;22.10;99.90;;;;;;5097931;28;19920;-87
2021/01/14 11:30:44;;;;;;;;;;;22.00;99.90;;;;;;5098241;28;20311;-89
2021/01/14 11:33:11;;;;;;;;;;;22.10;99.90;;;;;;5097938;28;20366;-86
2021/01/14 11:35:38;;;;;;;;;;;22.10;99.90;;;;;;5081465;28;19912;-83
2021/01/14 11:38:04;;;;;;;;;;;22.00;99.90;;;;;;5086003;28;19930;-84
2021/01/14 11:40:31;;;;;;;;;;;22.10;99.90;;;;;;5097486;28;19918;-87
2021/01/14 11:42:57;;;;;;;;;;;22.10;99.90;;;;;;5097273;28;20335;-85
2021/01/14 11:45:24;;;;;;;;;;;22.10;99.90;;;;;;5097273;28;20439;-87
2021/01/14 11:47:51;;;;;;;;;;;22.10;99.90;;;;;;5096349;28;19938;-86
2021/01/14 11:50:17;;;;;;;;;;;22.00;99.90;;;;;;5095822;28;20332;-83
2021/01/14 12:05:24;;;;;;;;;;;22.00;99.90;;;;;;5058400;28;19917;-84
2021/01/14 12:07:51;;;;;;;;;;;21.90;99.90;;;;;;5083634;27;20304;-83
2021/01/14 12:10:21;;;;;;;;;;;21.90;99.90;;;;;;5081077;27;20263;-83
2021/01/14 12:12:48;;;;;;;;;;;21.90;99.90;;;;;;5052153;27;19925;-84
2021/01/14 12:15:21;;;;;;;;;;;21.90;99.90;;;;;;5051442;28;19917;-85
2021/01/14 12:17:48;;;;;;;;;;;21.90;99.90;;;;;;5054626;27;19917;-82
2021/01/14 12:20:14;;;;;;;;;;;21.80;99.90;;;;;;5047530;28;19913;-82
2021/01/14 12:23:13;;;;;;;;;;;21.80;99.90;;;;;;5053285;27;20427;-82
2021/01/14 12:25:39;;;;;;;;;;;21.90;99.90;;;;;;5057889;27;19952;-83
2021/01/14 12:28:10;;;;;;;;;;;21.90;99.90;;;;;;5079360;27;20425;-84
2021/01/14 12:30:46;;;;;;;;;;;21.90;99.90;;;;;;5049923;27;19913;-84
2021/01/14 12:33:14;;;;;;;;;;;21.90;99.90;;;;;;5045311;28;19921;-81
2021/01/14 12:36:25;;;;;;;;;;;21.90;99.90;;;;;;5047365;28;19913;-82
2021/01/14 12:39:06;;;;;;;;;;;21.90;99.90;;;;;;5005776;28;20458;-83
2021/01/14 12:41:35;;;;;;;;;;;21.90;99.90;;;;;;5006777;28;19914;-82
2021/01/14 12:44:03;;;;;;;;;;;21.90;99.90;;;;;;4988603;28;19968;-83
2021/01/14 12:46:37;;;;;;;;;;;21.90;99.90;;;;;;5005037;28;20004;-82
2021/01/14 12:49:07;;;;;;;;;;;21.90;99.90;;;;;;5046310;27;19966;-83
2021/01/14 12:51:35;;;;;;;;;;;21.90;99.90;;;;;;5047170;28;19913;-84
2021/01/14 12:54:02;;;;;;;;;;;21.90;99.90;;;;;;5048902;27;19921;-81
2021/01/14 12:56:29;;;;;;;;;;;21.90;99.90;;;;;;5046442;28;19977;-81
2021/01/14 12:59:00;;;;;;;;;;;21.90;99.90;;;;;;5047391;28;19913;-82
2021/01/14 13:01:31;;;;;;;;;;;21.80;99.90;;;;;;5047528;28;20102;-83
2021/01/14 13:03:59;;;;;;;;;;;21.90;99.90;;;;;;5044895;27;20289;-83
2021/01/14 13:06:36;;;;;;;;;;;21.90;99.90;;;;;;5033361;28;19909;-82
2021/01/14 13:09:07;;;;;;;;;;;21.80;99.90;;;;;;5033533;28;20386;-83
2021/01/14 13:11:34;;;;;;;;;;;21.80;99.90;;;;;;5033606;28;19920;-81
2021/01/14 13:14:01;;;;;;;;;;;21.70;99.90;;;;;;5065217;27;19925;-81
2021/01/14 13:16:32;;;;;;;;;;;21.80;99.90;;;;;;5032058;28;19962;-83
2021/01/14 13:19:00;;;;;;;;;;;21.70;99.90;;;;;;5032941;28;19913;-82
2021/01/14 13:21:43;;;;;;;;;;;21.80;99.90;;;;;;5033079;28;19913;-83
2021/01/14 13:24:14;;;;;;;;;;;21.80;99.90;;;;;;5035213;27;19913;-82
2021/01/14 13:26:42;;;;;;;;;;;21.80;99.90;;;;;;5033469;28;19956;-83
2021/01/14 13:29:09;;;;;;;;;;;21.80;99.90;;;;;;5033103;28;19909;-83
2021/01/14 13:31:45;;;;;;;;;;;21.90;99.90;;;;;;5033552;27;19918;-82
2021/01/14 13:34:12;;;;;;;;;;;21.80;99.90;;;;;;5033495;28;19921;-83
2021/01/14 13:36:44;;;;;;;;;;;21.80;99.90;;;;;;5050814;28;19909;-82
2021/01/14 13:39:11;;;;;;;;;;;21.80;99.90;;;;;;5034042;28;20016;-82
2021/01/14 13:41:41;;;;;;;;;;;21.70;99.90;;;;;;5032751;28;19986;-82
2021/01/14 13:44:16;;;;;;;;;;;21.80;99.90;;;;;;5034369;28;19920;-83
2021/01/14 13:46:46;;;;;;;;;;;21.70;99.90;;;;;;5048702;28;19917;-84
2021/01/14 13:49:18;;;;;;;;;;;21.70;99.90;;;;;;5036837;28;20234;-83
2021/01/14 13:51:48;;;;;;;;;;;21.70;99.90;;;;;;5036429;28;19913;-83
2021/01/14 13:54:15;;;;;;;;;;;21.70;99.90;;;;;;5035994;28;20016;-82
2021/01/14 13:56:42;;;;;;;;;;;21.70;99.90;;;;;;5036894;28;20013;-82
2021/01/14 13:59:09;;;;;;;;;;;21.70;99.90;;;;;;5068336;27;19909;-82
2021/01/14 14:01:38;;;;;;;;;;;21.70;99.90;;;;;;5036033;28;20008;-82
2021/01/14 14:04:14;;;;;;;;;;;21.70;99.90;;;;;;5035083;28;19975;-82
2021/01/14 14:06:42;;;;;;;;;;;21.60;99.90;;;;;;5035653;28;19909;-80
2021/01/14 14:09:19;;;;;;;;;;;21.70;99.90;;;;;;5034503;28;20313;-81
2021/01/14 14:11:46;;;;;;;;;;;21.70;99.90;;;;;;5036036;28;19920;-81
2021/01/14 14:14:13;;;;;;;;;;;21.70;99.90;;;;;;5040249;27;19969;-82
2021/01/14 14:16:43;;;;;;;;;;;21.70;99.90;;;;;;5035564;27;19910;-82
2021/01/14 14:19:10;;;;;;;;;;;21.80;99.90;;;;;;5029874;28;20011;-83
2021/01/14 14:21:37;;;;;;;;;;;21.70;99.90;;;;;;5031498;28;20506;-82
2021/01/14 14:24:05;;;;;;;;;;;21.70;99.90;;;;;;5029654;28;20389;-83
2021/01/14 14:26:35;;;;;;;;;;;21.60;99.90;;;;;;5031525;28;19939;-82
2021/01/14 14:29:04;;;;;;;;;;;21.60;99.90;;;;;;5031368;28;19950;-83
2021/01/14 14:31:33;;;;;;;;;;;21.60;99.90;;;;;;5062333;28;20397;-82
2021/01/14 14:34:00;;;;;;;;;;;21.70;99.90;;;;;;5031263;28;19929;-84
2021/01/14 14:36:27;;;;;;;;;;;21.80;99.90;;;;;;5030941;28;20007;-82
2021/01/14 14:38:55;;;;;;;;;;;21.70;99.90;;;;;;5034431;28;19982;-82
2021/01/14 14:41:22;;;;;;;;;;;21.70;99.90;;;;;;5029565;28;19986;-82
2021/01/14 14:43:49;;;;;;;;;;;21.70;99.90;;;;;;5031514;28;20208;-81
2021/01/14 14:46:17;;;;;;;;;;;21.70;99.90;;;;;;5031180;28;19913;-82
2021/01/14 14:48:44;;;;;;;;;;;21.70;99.90;;;;;;5031007;28;19934;-82